• Join FlightAware (Why Join?)
  • Login
  • US Flag 
Rudolph Flight #1: Arrived! 
12:29PM EST


 

Airport Tracker/Info


-or-


 

Live Flight TrackerFlight Track Log ✈ SWA1668 ✈ 08-May-2013 ✈ KDEN - KAMA

Flight Track Log - Related Links

Times and Time Zones

All times are in EDT time to prevent confusion due to time zone crossing. See the SWA1668 flight status page for this flight to view local times or setup timezone preferences in your user account.

Time Position Orientation Groundspeed Altitude Reporting Facility
EDT Latitude Longitude Course Direction KTS MPH feet Rate Location/Type
02:00PM 39.8500 -104.7333 252° West 162 186 6,400  Level Denver TRACON
02:01PM 39.8333 -104.8000 252° West 239 275 7,900 1,800 Climbing Denver TRACON
02:02PM 39.7914 -104.8981 241° Southwest 289 333 10,100 2,580 Climbing Denver Center
02:03PM 39.7075 -104.9256 194° South 325 374 13,300 3,180 Climbing Denver Center
02:04PM 39.6086 -104.8994 169° South 342 394 16,700 3,180 Climbing Denver Center
02:05PM 39.5100 -104.8711 168° South 360 414 19,900 2,940 Climbing Denver Center
02:06PM 39.3997 -104.8397 168° South 375 432 22,800 2,040 Climbing Denver Center
02:07PM 39.2944 -104.8092 167° South 385 443 24,200 1,920 Climbing Denver Center
02:08PM 39.1764 -104.7742 167° South 407 468 26,800 2,160 Climbing Denver Center
02:09PM 39.0708 -104.7469 169° South 407 468 28,700 1,980 Climbing Denver Center
02:10PM 38.9461 -104.6964 163° South 419 482 30,900 1,800 Climbing Denver Center
02:11PM 38.8406 -104.6519 162° South 417 480 32,900 1,140 Climbing Denver Center
02:12PM 38.7025 -104.5942 162° South 408 470 33,600 480 Climbing Denver Center
02:13PM 38.5903 -104.5819 175° South 423 487 34,000 180 Climbing Denver Center
02:14PM 38.4597 -104.5639 174° South 423 487 34,000  Level Denver Center
02:15PM 38.3717 -104.4750 142° Southeast 418 481 34,000  Level Denver Center
02:16PM 38.2631 -104.3794 145° Southeast 423 487 34,000  Level Denver Center
02:17PM 38.1731 -104.2956 144° Southeast 419 482 34,100 720 Climbing Denver Center
02:18PM 38.0642 -104.1942 144° Southeast 430 495 35,600 1,560 Climbing Denver Center
02:19PM 37.9697 -104.1072 144° Southeast 436 502 37,300 1,380 Climbing Denver Center
02:20PM 37.8756 -104.0222 145° Southeast 433 498 38,500 960 Climbing Denver Center
02:21PM 37.7636 -103.9200 144° Southeast 438 504 39,400 900 Climbing Denver Center
02:22PM 37.6661 -103.8297 144° Southeast 444 511 40,400 720 Climbing Denver Center
02:24PM 37.5675 -103.7406 144° Southeast 448 516 41,000 240 Climbing Denver Center
02:25PM 37.4531 -103.6358 144° Southeast 450 518 41,000  Level Denver Center
02:26PM 37.3547 -103.5472 144° Southeast 452 520 41,000  Level Denver Center
02:26PM 37.3211 -103.5200 147° Southeast 452 520 41,000  Level Albuquerque Center
02:27PM 37.2242 -103.4297 143° Southeast 451 519 41,000  Level Albuquerque Center
02:28PM 37.1078 -103.3278 145° Southeast 455 524 41,000  Level Albuquerque Center
02:29PM 37.0094 -103.2394 144° Southeast 454 522 41,000 -180 Level Albuquerque Center
02:30PM 36.9106 -103.1517 145° Southeast 453 521 40,700 -1,440 Descending Albuquerque Center
02:31PM 36.7950 -103.0497 145° Southeast 455 524 38,100 -2,640 Descending Albuquerque Center
02:32PM 36.6992 -102.9642 144° Southeast 447 514 35,400 -2,880 Descending Albuquerque Center
02:33PM 36.5914 -102.8683 144° Southeast 444 511 32,200 -3,120 Descending Albuquerque Center
02:34PM 36.4789 -102.7700 145° Southeast 453 521 29,000 -1,620 Descending Albuquerque Center
02:35PM 36.3858 -102.6881 145° Southeast 417 480 29,000 -600 Level Albuquerque Center
02:36PM 36.2958 -102.6097 145° Southeast 397 457 27,800 -1,800 Descending Albuquerque Center
02:37PM 36.2025 -102.5283 145° Southeast 405 466 25,300 -2,520 Descending Albuquerque Center
02:38PM 36.1106 -102.4481 145° Southeast 406 467 22,700 -2,580 Descending Albuquerque Center
02:39PM 36.0194 -102.3694 145° Southeast 401 461 20,100 -2,580 Descending Albuquerque Center
02:40PM 35.9325 -102.2933 145° Southeast 388 447 17,400 -2,880 Descending Albuquerque Center
02:41PM 35.8292 -102.2053 145° Southeast 379 436 14,300 -2,700 Descending Albuquerque Center
02:42PM 35.7475 -102.1350 145° Southeast 365 420 11,900 -1,860 Descending Albuquerque Center
02:43PM 35.6683 -102.0667 145° Southeast 354 407 10,500 -1,260 Descending Albuquerque Center
02:44PM 35.6008 -102.0081 145° Southeast 310 357 9,400 -1,080 Descending Albuquerque Center
02:45PM 35.5361 -101.9547 146° Southeast 287 330 8,300 -1,320 Descending Albuquerque Center
02:46PM 35.4744 -101.9022 145° Southeast 277 319 6,700 -1,140 Descending Albuquerque Center
02:47PM 35.4136 -101.8511 146° Southeast 272 313 6,000 -540 Descending Albuquerque Center
02:48PM 35.3531 -101.7739 134° Southeast 269 310 5,700 -420 Descending Albuquerque Center
02:49PM 35.3106 -101.7108 130° Southeast 254 292 5,200 -540 Descending Albuquerque Center
02:50PM 35.2767 -101.6669 133° Southeast 207 238 4,700 -540 Descending Albuquerque Center
02:52PM 35.2444 -101.6828 202° Southwest 161 185 4,100 -540 Descending Albuquerque Center
02:53PM 35.2194 -101.7153 227° Southwest 145 167 3,700 -420 Descending Albuquerque Center